Overview Statistics Trail Chart Weather Telemetry Raw packets
 

This is the latest recevied weather packets stored in our database for station/object OK1FET-4. If no packets are shown the sender has not sent any weather packets the latest 10 day(s).

<< 68 69 70 71 72 73 74 >>
Time Temp. Humidity Pressure Rain* Wind** Luminosity Snow
1788178637 23.33° C 76% 1016.6 hPa - - - -
1788178331 23.33° C 62% 1016.6 hPa - - - -
1788178029 22.78° C 75% 1016.7 hPa - - - -
1788177728 22.78° C 66% 1016.6 hPa - - - -
1788177427 22.78° C 75% 1016.6 hPa - - - -
1788177126 22.78° C 82% 1016.6 hPa - - - -
1788176825 22.78° C 70% 1016.7 hPa - - - -
1788176523 21.67° C 74% 1016.8 hPa - - - -
1788176222 22.78° C 91% 1016.6 hPa - - - -
1788175921 22.22° C 78% 1016.7 hPa - - - -
1788175619 22.78° C 100% 1016.7 hPa - - - -
1788175318 22.78° C 92% 1016.5 hPa - - - -
1788175017 21.67° C 100% 1016.7 hPa - - - -
1788174716 21.67° C 93% 1016.6 hPa - - - -
1788174415 21.67° C 100% 1016.6 hPa - - - -
1788174114 21.11° C 100% 1016.7 hPa - - - -
1788173813 21.11° C 100% 1016.8 hPa - - - -
1788173511 20.56° C 100% 1016.7 hPa - - - -
1788173210 21.11° C 100% 1016.7 hPa - - - -
1788172909 21.11° C 100% 1016.6 hPa - - - -
1788172608 21.11° C 100% 1016.6 hPa - - - -
1788172307 20.56° C 100% 1016.6 hPa - - - -
1788172006 20.56° C 100% 1016.7 hPa - - - -
1788171705 20° C 100% 1016.7 hPa - - - -
1788171404 19.44° C 100% 1016.7 hPa - - - -

* Rain since midnight (hover to see other rain measurements)
** Current wind speed in m/s (hover to see current wind gust speed)